sensor_id;sensor_type;location;lat;lon;timestamp;temperature;humidity
17489;DHT22;8861;52.644;4.734;2024-02-21T00:00:32;9.10;99.90
17489;DHT22;8861;52.644;4.734;2024-02-21T00:02:59;9.10;99.90
17489;DHT22;8861;52.644;4.734;2024-02-21T00:05:27;9.20;99.90
17489;DHT22;8861;52.644;4.734;2024-02-21T00:07:55;9.10;99.90
17489;DHT22;8861;52.644;4.734;2024-02-21T00:10:25;9.10;99.90
17489;DHT22;8861;52.644;4.734;2024-02-21T00:12:52;9.10;99.90
17489;DHT22;8861;52.644;4.734;2024-02-21T00:15:19;9.20;99.90
17489;DHT22;8861;52.644;4.734;2024-02-21T00:17:47;9.10;99.90
17489;DHT22;8861;52.644;4.734;2024-02-21T00:20:14;9.10;99.90
17489;DHT22;8861;52.644;4.734;2024-02-21T00:22:41;9.20;99.90
17489;DHT22;8861;52.644;4.734;2024-02-21T00:25:08;9.10;99.90
17489;DHT22;8861;52.644;4.734;2024-02-21T00:27:37;9.20;99.90
17489;DHT22;8861;52.644;4.734;2024-02-21T00:30:06;9.10;99.90
17489;DHT22;8861;52.644;4.734;2024-02-21T00:32:33;9.10;99.90
17489;DHT22;8861;52.644;4.734;2024-02-21T00:35:00;9.20;99.90
17489;DHT22;8861;52.644;4.734;2024-02-21T00:37:29;9.10;99.90
17489;DHT22;8861;52.644;4.734;2024-02-21T00:39:56;9.10;99.90
17489;DHT22;8861;52.644;4.734;2024-02-21T00:42:23;9.10;99.90
17489;DHT22;8861;52.644;4.734;2024-02-21T00:44:51;9.10;99.90
17489;DHT22;8861;52.644;4.734;2024-02-21T00:47:18;9.10;99.90
17489;DHT22;8861;52.644;4.734;2024-02-21T00:49:45;9.10;99.90
17489;DHT22;8861;52.644;4.734;2024-02-21T00:52:12;9.20;99.90
17489;DHT22;8861;52.644;4.734;2024-02-21T00:54:39;9.20;99.90
17489;DHT22;8861;52.644;4.734;2024-02-21T00:57:06;9.20;99.90
17489;DHT22;8861;52.644;4.734;2024-02-21T00:59:33;9.20;99.90
17489;DHT22;8861;52.644;4.734;2024-02-21T01:02:02;9.20;99.90
17489;DHT22;8861;52.644;4.734;2024-02-21T01:04:29;9.20;99.90
17489;DHT22;8861;52.644;4.734;2024-02-21T01:06:56;9.30;99.90
17489;DHT22;8861;52.644;4.734;2024-02-21T01:09:23;9.20;99.90
17489;DHT22;8861;52.644;4.734;2024-02-21T01:11:50;9.30;99.90
17489;DHT22;8861;52.644;4.734;2024-02-21T01:14:17;9.30;99.90
17489;DHT22;8861;52.644;4.734;2024-02-21T01:16:44;9.30;99.90
17489;DHT22;8861;52.644;4.734;2024-02-21T01:19:13;9.30;99.90
17489;DHT22;8861;52.644;4.734;2024-02-21T01:21:40;9.30;99.90
17489;DHT22;8861;52.644;4.734;2024-02-21T01:24:08;9.40;99.90
17489;DHT22;8861;52.644;4.734;2024-02-21T01:26:34;9.40;99.90
17489;DHT22;8861;52.644;4.734;2024-02-21T01:29:02;9.40;99.90
17489;DHT22;8861;52.644;4.734;2024-02-21T01:31:29;9.40;99.90
17489;DHT22;8861;52.644;4.734;2024-02-21T01:33:56;9.50;99.90
17489;DHT22;8861;52.644;4.734;2024-02-21T01:36:25;9.50;99.90
17489;DHT22;8861;52.644;4.734;2024-02-21T01:38:52;9.50;99.90
17489;DHT22;8861;52.644;4.734;2024-02-21T01:41:19;9.50;99.90
17489;DHT22;8861;52.644;4.734;2024-02-21T01:43:46;9.50;99.90
17489;DHT22;8861;52.644;4.734;2024-02-21T01:46:13;9.50;99.90
17489;DHT22;8861;52.644;4.734;2024-02-21T01:48:40;9.50;99.90
17489;DHT22;8861;52.644;4.734;2024-02-21T01:51:08;9.50;99.90
17489;DHT22;8861;52.644;4.734;2024-02-21T01:53:42;9.50;99.90
17489;DHT22;8861;52.644;4.734;2024-02-21T01:56:09;9.50;99.90
17489;DHT22;8861;52.644;4.734;2024-02-21T01:58:39;9.50;99.90
17489;DHT22;8861;52.644;4.734;2024-02-21T02:01:07;9.50;99.90
17489;DHT22;8861;52.644;4.734;2024-02-21T02:03:34;9.40;99.90
17489;DHT22;8861;52.644;4.734;2024-02-21T02:06:01;9.40;99.90
17489;DHT22;8861;52.644;4.734;2024-02-21T02:08:28;9.30;99.90
17489;DHT22;8861;52.644;4.734;2024-02-21T02:10:57;9.30;99.90
17489;DHT22;8861;52.644;4.734;2024-02-21T02:13:25;9.30;99.90
17489;DHT22;8861;52.644;4.734;2024-02-21T02:15:53;9.40;99.90
17489;DHT22;8861;52.644;4.734;2024-02-21T02:18:20;9.30;99.90
17489;DHT22;8861;52.644;4.734;2024-02-21T02:20:47;9.30;99.90
17489;DHT22;8861;52.644;4.734;2024-02-21T02:23:21;9.30;99.90
17489;DHT22;8861;52.644;4.734;2024-02-21T02:25:48;9.30;99.90
17489;DHT22;8861;52.644;4.734;2024-02-21T02:28:18;9.30;99.90
17489;DHT22;8861;52.644;4.734;2024-02-21T02:30:45;9.30;99.90
17489;DHT22;8861;52.644;4.734;2024-02-21T02:33:12;9.30;99.90
17489;DHT22;8861;52.644;4.734;2024-02-21T02:35:40;9.30;99.90
17489;DHT22;8861;52.644;4.734;2024-02-21T02:38:09;9.20;99.90
17489;DHT22;8861;52.644;4.734;2024-02-21T02:40:39;9.10;99.90
17489;DHT22;8861;52.644;4.734;2024-02-21T02:43:07;9.10;99.90
17489;DHT22;8861;52.644;4.734;2024-02-21T02:45:34;9.10;99.90
17489;DHT22;8861;52.644;4.734;2024-02-21T02:48:01;9.00;99.90
17489;DHT22;8861;52.644;4.734;2024-02-21T02:50:28;9.00;99.90
17489;DHT22;8861;52.644;4.734;2024-02-21T02:52:55;9.00;99.90
17489;DHT22;8861;52.644;4.734;2024-02-21T02:55:23;9.00;99.90
17489;DHT22;8861;52.644;4.734;2024-02-21T02:57:51;9.00;99.90
17489;DHT22;8861;52.644;4.734;2024-02-21T03:00:18;9.00;99.90
17489;DHT22;8861;52.644;4.734;2024-02-21T03:02:46;8.90;99.90
17489;DHT22;8861;52.644;4.734;2024-02-21T03:05:17;8.90;99.90
17489;DHT22;8861;52.644;4.734;2024-02-21T03:07:45;8.90;99.90
17489;DHT22;8861;52.644;4.734;2024-02-21T03:10:12;8.80;99.90
17489;DHT22;8861;52.644;4.734;2024-02-21T03:12:40;8.80;99.90
17489;DHT22;8861;52.644;4.734;2024-02-21T03:15:09;8.80;99.90
17489;DHT22;8861;52.644;4.734;2024-02-21T03:17:36;8.80;99.90
17489;DHT22;8861;52.644;4.734;2024-02-21T03:20:04;8.80;99.90
17489;DHT22;8861;52.644;4.734;2024-02-21T03:22:34;8.70;99.90
17489;DHT22;8861;52.644;4.734;2024-02-21T03:25:02;8.70;99.90
17489;DHT22;8861;52.644;4.734;2024-02-21T03:27:29;8.60;99.90
17489;DHT22;8861;52.644;4.734;2024-02-21T03:29:56;8.60;99.90
17489;DHT22;8861;52.644;4.734;2024-02-21T03:32:24;8.60;99.90
17489;DHT22;8861;52.644;4.734;2024-02-21T03:34:51;8.60;99.90
17489;DHT22;8861;52.644;4.734;2024-02-21T03:37:18;8.60;99.90
17489;DHT22;8861;52.644;4.734;2024-02-21T03:39:45;8.60;99.90
17489;DHT22;8861;52.644;4.734;2024-02-21T03:42:12;8.60;99.90
17489;DHT22;8861;52.644;4.734;2024-02-21T03:44:39;8.50;99.90
17489;DHT22;8861;52.644;4.734;2024-02-21T03:47:06;8.60;99.90
17489;DHT22;8861;52.644;4.734;2024-02-21T03:49:37;8.60;99.90
17489;DHT22;8861;52.644;4.734;2024-02-21T03:52:05;8.60;99.90
17489;DHT22;8861;52.644;4.734;2024-02-21T03:54:32;8.70;99.90
17489;DHT22;8861;52.644;4.734;2024-02-21T03:57:00;8.80;99.90
17489;DHT22;8861;52.644;4.734;2024-02-21T03:59:28;8.80;99.90
17489;DHT22;8861;52.644;4.734;2024-02-21T04:01:55;8.90;99.90
17489;DHT22;8861;52.644;4.734;2024-02-21T04:04:22;8.90;99.90
17489;DHT22;8861;52.644;4.734;2024-02-21T04:06:51;9.00;99.90
17489;DHT22;8861;52.644;4.734;2024-02-21T04:09:18;9.00;99.90
17489;DHT22;8861;52.644;4.734;2024-02-21T04:11:45;9.10;99.90
17489;DHT22;8861;52.644;4.734;2024-02-21T04:14:12;9.20;99.90
17489;DHT22;8861;52.644;4.734;2024-02-21T04:16:39;9.20;99.90
17489;DHT22;8861;52.644;4.734;2024-02-21T04:19:07;9.20;99.90
17489;DHT22;8861;52.644;4.734;2024-02-21T04:21:35;9.20;99.90
17489;DHT22;8861;52.644;4.734;2024-02-21T04:24:04;9.20;99.90
17489;DHT22;8861;52.644;4.734;2024-02-21T04:26:31;9.20;99.90
17489;DHT22;8861;52.644;4.734;2024-02-21T04:28:58;9.30;99.90
17489;DHT22;8861;52.644;4.734;2024-02-21T04:31:25;9.30;99.90
17489;DHT22;8861;52.644;4.734;2024-02-21T04:33:52;9.30;99.90
17489;DHT22;8861;52.644;4.734;2024-02-21T04:36:19;9.30;99.90
17489;DHT22;8861;52.644;4.734;2024-02-21T04:38:46;9.30;99.90
17489;DHT22;8861;52.644;4.734;2024-02-21T04:41:14;9.30;99.90
17489;DHT22;8861;52.644;4.734;2024-02-21T04:43:41;9.30;99.90
17489;DHT22;8861;52.644;4.734;2024-02-21T04:46:08;9.30;99.90
17489;DHT22;8861;52.644;4.734;2024-02-21T04:48:37;9.30;99.90
17489;DHT22;8861;52.644;4.734;2024-02-21T04:51:04;9.30;99.90
17489;DHT22;8861;52.644;4.734;2024-02-21T04:53:34;9.30;99.90
17489;DHT22;8861;52.644;4.734;2024-02-21T04:56:01;9.30;99.90
17489;DHT22;8861;52.644;4.734;2024-02-21T04:58:30;9.30;99.90
17489;DHT22;8861;52.644;4.734;2024-02-21T05:00:57;9.30;99.90
17489;DHT22;8861;52.644;4.734;2024-02-21T05:03:24;9.30;99.90
17489;DHT22;8861;52.644;4.734;2024-02-21T05:05:51;9.30;99.90
17489;DHT22;8861;52.644;4.734;2024-02-21T05:08:18;9.30;99.90
17489;DHT22;8861;52.644;4.734;2024-02-21T05:10:45;9.30;99.90
17489;DHT22;8861;52.644;4.734;2024-02-21T05:13:12;9.30;99.90
17489;DHT22;8861;52.644;4.734;2024-02-21T05:15:41;9.40;99.90
17489;DHT22;8861;52.644;4.734;2024-02-21T05:18:11;9.40;99.90
17489;DHT22;8861;52.644;4.734;2024-02-21T05:20:38;9.30;99.90
17489;DHT22;8861;52.644;4.734;2024-02-21T05:23:05;9.30;99.90
17489;DHT22;8861;52.644;4.734;2024-02-21T05:25:32;9.30;99.90
17489;DHT22;8861;52.644;4.734;2024-02-21T05:27:59;9.30;99.90
17489;DHT22;8861;52.644;4.734;2024-02-21T05:30:27;9.30;99.90
17489;DHT22;8861;52.644;4.734;2024-02-21T05:32:56;9.40;99.90
17489;DHT22;8861;52.644;4.734;2024-02-21T05:35:26;9.30;99.90
17489;DHT22;8861;52.644;4.734;2024-02-21T05:37:53;9.30;99.90
17489;DHT22;8861;52.644;4.734;2024-02-21T05:40:20;9.30;99.90
17489;DHT22;8861;52.644;4.734;2024-02-21T05:42:47;9.30;99.90
17489;DHT22;8861;52.644;4.734;2024-02-21T05:45:14;9.30;99.90
17489;DHT22;8861;52.644;4.734;2024-02-21T05:47:41;9.40;99.90
17489;DHT22;8861;52.644;4.734;2024-02-21T05:50:11;9.40;99.90
17489;DHT22;8861;52.644;4.734;2024-02-21T05:52:38;9.30;99.90
17489;DHT22;8861;52.644;4.734;2024-02-21T05:55:07;9.30;99.90
17489;DHT22;8861;52.644;4.734;2024-02-21T05:57:34;9.40;99.90
17489;DHT22;8861;52.644;4.734;2024-02-21T06:00:04;9.40;99.90
17489;DHT22;8861;52.644;4.734;2024-02-21T06:02:31;9.30;99.90
17489;DHT22;8861;52.644;4.734;2024-02-21T06:04:58;9.40;99.90
17489;DHT22;8861;52.644;4.734;2024-02-21T06:07:27;9.30;99.90
17489;DHT22;8861;52.644;4.734;2024-02-21T06:09:54;9.40;99.90
17489;DHT22;8861;52.644;4.734;2024-02-21T06:12:21;9.30;99.90
17489;DHT22;8861;52.644;4.734;2024-02-21T06:14:49;9.40;99.90
17489;DHT22;8861;52.644;4.734;2024-02-21T06:17:16;9.30;99.90
17489;DHT22;8861;52.644;4.734;2024-02-21T06:19:43;9.40;99.90
17489;DHT22;8861;52.644;4.734;2024-02-21T06:22:11;9.40;99.90
17489;DHT22;8861;52.644;4.734;2024-02-21T06:24:39;9.40;99.90
17489;DHT22;8861;52.644;4.734;2024-02-21T06:27:08;9.40;99.90
17489;DHT22;8861;52.644;4.734;2024-02-21T06:29:36;9.40;99.90
17489;DHT22;8861;52.644;4.734;2024-02-21T06:32:04;9.40;99.90
17489;DHT22;8861;52.644;4.734;2024-02-21T06:34:31;9.40;99.90
17489;DHT22;8861;52.644;4.734;2024-02-21T06:36:58;9.40;99.90
17489;DHT22;8861;52.644;4.734;2024-02-21T06:39:25;9.40;99.90
17489;DHT22;8861;52.644;4.734;2024-02-21T06:41:56;9.40;99.90
17489;DHT22;8861;52.644;4.734;2024-02-21T06:44:23;9.40;99.90
17489;DHT22;8861;52.644;4.734;2024-02-21T06:46:50;9.40;99.90
17489;DHT22;8861;52.644;4.734;2024-02-21T06:49:17;9.40;99.90
17489;DHT22;8861;52.644;4.734;2024-02-21T06:51:44;9.50;99.90
17489;DHT22;8861;52.644;4.734;2024-02-21T06:54:11;9.50;99.90
17489;DHT22;8861;52.644;4.734;2024-02-21T06:56:39;9.50;99.90
17489;DHT22;8861;52.644;4.734;2024-02-21T06:59:08;9.50;99.90
17489;DHT22;8861;52.644;4.734;2024-02-21T07:01:36;9.50;99.90
17489;DHT22;8861;52.644;4.734;2024-02-21T07:04:03;9.50;99.90
17489;DHT22;8861;52.644;4.734;2024-02-21T07:06:30;9.50;99.90
17489;DHT22;8861;52.644;4.734;2024-02-21T07:08:57;9.50;99.90
17489;DHT22;8861;52.644;4.734;2024-02-21T07:11:24;9.50;99.90
17489;DHT22;8861;52.644;4.734;2024-02-21T07:13:52;9.60;99.90
17489;DHT22;8861;52.644;4.734;2024-02-21T07:16:20;9.50;99.90
17489;DHT22;8861;52.644;4.734;2024-02-21T07:18:47;9.50;99.90
17489;DHT22;8861;52.644;4.734;2024-02-21T07:21:14;9.50;99.90
17489;DHT22;8861;52.644;4.734;2024-02-21T07:23:41;9.50;99.90
17489;DHT22;8861;52.644;4.734;2024-02-21T07:26:08;9.60;99.90
17489;DHT22;8861;52.644;4.734;2024-02-21T07:28:36;9.60;99.90
17489;DHT22;8861;52.644;4.734;2024-02-21T07:31:03;9.60;99.90
17489;DHT22;8861;52.644;4.734;2024-02-21T07:33:32;9.60;99.90
17489;DHT22;8861;52.644;4.734;2024-02-21T07:36:01;9.60;99.90
17489;DHT22;8861;52.644;4.734;2024-02-21T07:38:27;9.60;99.90
17489;DHT22;8861;52.644;4.734;2024-02-21T07:40:55;9.70;99.90
17489;DHT22;8861;52.644;4.734;2024-02-21T07:43:22;9.70;99.90
17489;DHT22;8861;52.644;4.734;2024-02-21T07:45:49;9.70;99.90
17489;DHT22;8861;52.644;4.734;2024-02-21T07:48:16;9.70;99.90
17489;DHT22;8861;52.644;4.734;2024-02-21T07:50:46;9.70;99.90
17489;DHT22;8861;52.644;4.734;2024-02-21T07:53:14;9.80;99.90
17489;DHT22;8861;52.644;4.734;2024-02-21T07:55:41;9.80;99.90
17489;DHT22;8861;52.644;4.734;2024-02-21T07:58:08;9.80;99.90
17489;DHT22;8861;52.644;4.734;2024-02-21T08:00:35;9.80;99.90
17489;DHT22;8861;52.644;4.734;2024-02-21T08:03:03;9.80;99.90
17489;DHT22;8861;52.644;4.734;2024-02-21T08:05:30;9.80;99.90
17489;DHT22;8861;52.644;4.734;2024-02-21T08:07:58;9.80;99.90
17489;DHT22;8861;52.644;4.734;2024-02-21T08:10:25;9.80;99.90
17489;DHT22;8861;52.644;4.734;2024-02-21T08:12:52;9.80;99.90
17489;DHT22;8861;52.644;4.734;2024-02-21T08:15:19;9.80;99.90
17489;DHT22;8861;52.644;4.734;2024-02-21T08:17:49;9.80;99.90
17489;DHT22;8861;52.644;4.734;2024-02-21T08:20:17;9.80;99.90
17489;DHT22;8861;52.644;4.734;2024-02-21T08:22:44;9.80;99.90
17489;DHT22;8861;52.644;4.734;2024-02-21T08:25:13;9.80;99.90
17489;DHT22;8861;52.644;4.734;2024-02-21T08:27:40;9.80;99.90
17489;DHT22;8861;52.644;4.734;2024-02-21T08:30:07;9.80;99.90
17489;DHT22;8861;52.644;4.734;2024-02-21T08:32:34;9.80;99.90
17489;DHT22;8861;52.644;4.734;2024-02-21T08:35:02;9.90;99.90
17489;DHT22;8861;52.644;4.734;2024-02-21T08:37:30;9.90;99.90
17489;DHT22;8861;52.644;4.734;2024-02-21T08:39:57;9.90;99.90
17489;DHT22;8861;52.644;4.734;2024-02-21T08:42:25;10.00;99.90
17489;DHT22;8861;52.644;4.734;2024-02-21T08:44:52;10.00;99.90
17489;DHT22;8861;52.644;4.734;2024-02-21T08:47:19;10.00;99.90
17489;DHT22;8861;52.644;4.734;2024-02-21T08:49:46;10.00;99.90
17489;DHT22;8861;52.644;4.734;2024-02-21T08:52:13;10.10;99.90
17489;DHT22;8861;52.644;4.734;2024-02-21T08:54:43;10.10;99.90
17489;DHT22;8861;52.644;4.734;2024-02-21T08:57:10;10.10;99.90
17489;DHT22;8861;52.644;4.734;2024-02-21T08:59:41;10.10;99.90
17489;DHT22;8861;52.644;4.734;2024-02-21T09:02:08;10.20;99.90
17489;DHT22;8861;52.644;4.734;2024-02-21T09:04:35;10.20;99.90
17489;DHT22;8861;52.644;4.734;2024-02-21T09:07:05;10.20;99.90
17489;DHT22;8861;52.644;4.734;2024-02-21T09:09:32;10.30;99.90
17489;DHT22;8861;52.644;4.734;2024-02-21T09:11:59;10.30;99.90
17489;DHT22;8861;52.644;4.734;2024-02-21T09:14:31;10.30;99.90
17489;DHT22;8861;52.644;4.734;2024-02-21T09:16:59;10.30;99.90
17489;DHT22;8861;52.644;4.734;2024-02-21T09:19:26;10.40;99.90
17489;DHT22;8861;52.644;4.734;2024-02-21T09:21:53;10.40;99.90
17489;DHT22;8861;52.644;4.734;2024-02-21T09:24:20;10.50;99.90
17489;DHT22;8861;52.644;4.734;2024-02-21T09:26:47;10.60;99.90
17489;DHT22;8861;52.644;4.734;2024-02-21T09:29:14;10.60;99.90
17489;DHT22;8861;52.644;4.734;2024-02-21T09:31:42;10.60;99.90
17489;DHT22;8861;52.644;4.734;2024-02-21T09:34:10;10.70;99.90
17489;DHT22;8861;52.644;4.734;2024-02-21T09:36:37;10.70;99.90
17489;DHT22;8861;52.644;4.734;2024-02-21T09:39:06;10.80;99.90
17489;DHT22;8861;52.644;4.734;2024-02-21T09:41:36;10.80;99.90
17489;DHT22;8861;52.644;4.734;2024-02-21T09:44:06;10.80;99.90
17489;DHT22;8861;52.644;4.734;2024-02-21T09:46:44;10.90;99.90
17489;DHT22;8861;52.644;4.734;2024-02-21T09:49:24;10.90;99.90
17489;DHT22;8861;52.644;4.734;2024-02-21T09:51:54;10.90;99.90
17489;DHT22;8861;52.644;4.734;2024-02-21T09:54:21;10.90;99.90
17489;DHT22;8861;52.644;4.734;2024-02-21T09:56:48;11.00;99.90
17489;DHT22;8861;52.644;4.734;2024-02-21T09:59:16;11.00;99.90
17489;DHT22;8861;52.644;4.734;2024-02-21T10:01:43;11.00;99.90
17489;DHT22;8861;52.644;4.734;2024-02-21T10:04:14;10.90;99.90
17489;DHT22;8861;52.644;4.734;2024-02-21T10:06:41;10.90;99.90
17489;DHT22;8861;52.644;4.734;2024-02-21T10:09:08;10.90;99.90
17489;DHT22;8861;52.644;4.734;2024-02-21T10:11:35;10.90;99.90
17489;DHT22;8861;52.644;4.734;2024-02-21T10:14:03;10.80;99.90
17489;DHT22;8861;52.644;4.734;2024-02-21T10:16:31;10.80;99.90
17489;DHT22;8861;52.644;4.734;2024-02-21T10:18:58;10.70;99.90
17489;DHT22;8861;52.644;4.734;2024-02-21T10:21:27;10.70;99.90
17489;DHT22;8861;52.644;4.734;2024-02-21T10:23:55;10.80;99.90
17489;DHT22;8861;52.644;4.734;2024-02-21T10:26:22;10.80;99.90
17489;DHT22;8861;52.644;4.734;2024-02-21T10:28:49;10.80;99.90
17489;DHT22;8861;52.644;4.734;2024-02-21T10:31:24;10.80;99.90
17489;DHT22;8861;52.644;4.734;2024-02-21T10:33:58;10.80;99.90
17489;DHT22;8861;52.644;4.734;2024-02-21T10:36:29;10.80;99.90
17489;DHT22;8861;52.644;4.734;2024-02-21T10:38:57;10.80;99.90
17489;DHT22;8861;52.644;4.734;2024-02-21T10:41:24;10.80;99.90
17489;DHT22;8861;52.644;4.734;2024-02-21T10:43:55;10.80;99.90
17489;DHT22;8861;52.644;4.734;2024-02-21T10:46:23;10.90;99.90
17489;DHT22;8861;52.644;4.734;2024-02-21T10:49:01;10.90;99.90
17489;DHT22;8861;52.644;4.734;2024-02-21T10:51:33;10.80;99.90
17489;DHT22;8861;52.644;4.734;2024-02-21T10:54:11;10.80;99.90
17489;DHT22;8861;52.644;4.734;2024-02-21T10:56:40;10.80;99.90
17489;DHT22;8861;52.644;4.734;2024-02-21T10:59:08;10.70;99.90
17489;DHT22;8861;52.644;4.734;2024-02-21T11:01:35;10.70;99.90
17489;DHT22;8861;52.644;4.734;2024-02-21T11:04:05;10.70;99.90
17489;DHT22;8861;52.644;4.734;2024-02-21T11:06:36;10.70;99.90
17489;DHT22;8861;52.644;4.734;2024-02-21T11:09:04;10.80;99.90
17489;DHT22;8861;52.644;4.734;2024-02-21T11:11:33;10.80;99.90
17489;DHT22;8861;52.644;4.734;2024-02-21T11:14:07;10.90;99.90
17489;DHT22;8861;52.644;4.734;2024-02-21T11:16:38;10.90;99.90
17489;DHT22;8861;52.644;4.734;2024-02-21T11:19:06;10.90;99.90
17489;DHT22;8861;52.644;4.734;2024-02-21T11:21:36;10.90;99.90
17489;DHT22;8861;52.644;4.734;2024-02-21T11:24:04;10.90;99.90
17489;DHT22;8861;52.644;4.734;2024-02-21T11:26:31;10.80;99.90
17489;DHT22;8861;52.644;4.734;2024-02-21T11:28:59;10.70;99.90
17489;DHT22;8861;52.644;4.734;2024-02-21T11:31:27;10.70;99.90
17489;DHT22;8861;52.644;4.734;2024-02-21T11:33:54;10.70;99.90
17489;DHT22;8861;52.644;4.734;2024-02-21T11:36:25;10.70;99.90
17489;DHT22;8861;52.644;4.734;2024-02-21T11:38:54;10.70;99.90
17489;DHT22;8861;52.644;4.734;2024-02-21T11:41:21;10.80;99.90
17489;DHT22;8861;52.644;4.734;2024-02-21T11:43:49;10.80;99.90
17489;DHT22;8861;52.644;4.734;2024-02-21T11:46:17;10.90;99.90
17489;DHT22;8861;52.644;4.734;2024-02-21T11:48:49;10.90;99.90
17489;DHT22;8861;52.644;4.734;2024-02-21T11:51:22;10.80;99.90
17489;DHT22;8861;52.644;4.734;2024-02-21T11:53:50;10.90;99.90
17489;DHT22;8861;52.644;4.734;2024-02-21T11:56:19;10.90;99.90
17489;DHT22;8861;52.644;4.734;2024-02-21T11:58:48;10.90;99.90
17489;DHT22;8861;52.644;4.734;2024-02-21T12:01:15;11.00;99.90
17489;DHT22;8861;52.644;4.734;2024-02-21T12:03:42;11.00;99.90
17489;DHT22;8861;52.644;4.734;2024-02-21T12:06:20;11.10;99.90
17489;DHT22;8861;52.644;4.734;2024-02-21T12:08:48;11.10;99.90
17489;DHT22;8861;52.644;4.734;2024-02-21T12:11:22;11.10;99.90
17489;DHT22;8861;52.644;4.734;2024-02-21T12:13:59;11.10;99.90
17489;DHT22;8861;52.644;4.734;2024-02-21T12:16:29;11.10;99.90
17489;DHT22;8861;52.644;4.734;2024-02-21T12:18:56;11.20;99.90
17489;DHT22;8861;52.644;4.734;2024-02-21T12:21:24;11.20;99.90
17489;DHT22;8861;52.644;4.734;2024-02-21T12:23:53;11.10;99.90
17489;DHT22;8861;52.644;4.734;2024-02-21T12:26:22;11.10;99.90
17489;DHT22;8861;52.644;4.734;2024-02-21T12:28:49;11.10;99.90
17489;DHT22;8861;52.644;4.734;2024-02-21T12:31:19;11.10;99.90
17489;DHT22;8861;52.644;4.734;2024-02-21T12:33:47;11.10;99.90
17489;DHT22;8861;52.644;4.734;2024-02-21T12:36:14;11.10;99.90
17489;DHT22;8861;52.644;4.734;2024-02-21T12:38:42;11.10;99.90
17489;DHT22;8861;52.644;4.734;2024-02-21T12:41:09;11.10;99.90
17489;DHT22;8861;52.644;4.734;2024-02-21T12:43:38;11.10;99.90
17489;DHT22;8861;52.644;4.734;2024-02-21T12:46:05;11.10;99.90
17489;DHT22;8861;52.644;4.734;2024-02-21T12:48:33;11.20;99.90
17489;DHT22;8861;52.644;4.734;2024-02-21T12:51:00;11.20;99.90
17489;DHT22;8861;52.644;4.734;2024-02-21T12:53:27;11.40;99.90
17489;DHT22;8861;52.644;4.734;2024-02-21T12:55:54;11.40;99.90
17489;DHT22;8861;52.644;4.734;2024-02-21T12:58:22;11.50;99.90
17489;DHT22;8861;52.644;4.734;2024-02-21T13:00:50;11.50;99.90
17489;DHT22;8861;52.644;4.734;2024-02-21T13:03:18;11.50;99.90
17489;DHT22;8861;52.644;4.734;2024-02-21T13:05:45;11.50;99.90
17489;DHT22;8861;52.644;4.734;2024-02-21T13:08:13;11.50;99.90
17489;DHT22;8861;52.644;4.734;2024-02-21T13:10:40;11.60;99.90
17489;DHT22;8861;52.644;4.734;2024-02-21T13:13:07;11.60;99.90
17489;DHT22;8861;52.644;4.734;2024-02-21T13:15:34;11.50;99.90
17489;DHT22;8861;52.644;4.734;2024-02-21T13:18:04;11.50;99.90
17489;DHT22;8861;52.644;4.734;2024-02-21T13:20:31;11.40;99.90
17489;DHT22;8861;52.644;4.734;2024-02-21T13:22:58;11.40;99.90
17489;DHT22;8861;52.644;4.734;2024-02-21T13:25:25;11.40;99.90
17489;DHT22;8861;52.644;4.734;2024-02-21T13:27:52;11.40;99.90
17489;DHT22;8861;52.644;4.734;2024-02-21T13:30:19;11.40;99.90
17489;DHT22;8861;52.644;4.734;2024-02-21T13:32:46;11.30;99.90
17489;DHT22;8861;52.644;4.734;2024-02-21T13:35:14;11.30;99.90
17489;DHT22;8861;52.644;4.734;2024-02-21T13:37:41;11.30;99.90
17489;DHT22;8861;52.644;4.734;2024-02-21T13:40:09;11.30;99.90
17489;DHT22;8861;52.644;4.734;2024-02-21T13:42:36;11.30;99.90
17489;DHT22;8861;52.644;4.734;2024-02-21T13:45:04;11.40;99.90
17489;DHT22;8861;52.644;4.734;2024-02-21T13:47:32;11.40;99.90
17489;DHT22;8861;52.644;4.734;2024-02-21T13:49:59;11.40;99.90
17489;DHT22;8861;52.644;4.734;2024-02-21T13:52:27;11.40;99.90
17489;DHT22;8861;52.644;4.734;2024-02-21T13:54:54;11.40;99.90
17489;DHT22;8861;52.644;4.734;2024-02-21T13:57:21;11.40;99.90
17489;DHT22;8861;52.644;4.734;2024-02-21T13:59:48;11.40;99.90
17489;DHT22;8861;52.644;4.734;2024-02-21T14:02:15;11.30;99.90
17489;DHT22;8861;52.644;4.734;2024-02-21T14:04:42;11.30;99.90
17489;DHT22;8861;52.644;4.734;2024-02-21T14:07:09;11.30;99.90
17489;DHT22;8861;52.644;4.734;2024-02-21T14:09:38;11.20;99.90
17489;DHT22;8861;52.644;4.734;2024-02-21T14:12:06;11.10;99.90
17489;DHT22;8861;52.644;4.734;2024-02-21T14:14:34;11.10;99.90
17489;DHT22;8861;52.644;4.734;2024-02-21T14:17:01;11.00;99.90
17489;DHT22;8861;52.644;4.734;2024-02-21T14:19:29;10.90;99.90
17489;DHT22;8861;52.644;4.734;2024-02-21T14:21:56;10.70;99.90
17489;DHT22;8861;52.644;4.734;2024-02-21T14:24:23;10.70;99.90
17489;DHT22;8861;52.644;4.734;2024-02-21T14:26:51;10.60;99.90
17489;DHT22;8861;52.644;4.734;2024-02-21T14:29:18;10.50;99.90
17489;DHT22;8861;52.644;4.734;2024-02-21T14:31:45;10.40;99.90
17489;DHT22;8861;52.644;4.734;2024-02-21T14:34:12;10.30;99.90
17489;DHT22;8861;52.644;4.734;2024-02-21T14:36:40;10.20;99.90
17489;DHT22;8861;52.644;4.734;2024-02-21T14:39:07;10.10;99.90
17489;DHT22;8861;52.644;4.734;2024-02-21T14:41:35;10.00;99.90
17489;DHT22;8861;52.644;4.734;2024-02-21T14:44:04;9.90;99.90
17489;DHT22;8861;52.644;4.734;2024-02-21T14:46:31;9.80;99.90
17489;DHT22;8861;52.644;4.734;2024-02-21T14:49:00;9.80;99.90
17489;DHT22;8861;52.644;4.734;2024-02-21T14:51:28;9.70;99.90
17489;DHT22;8861;52.644;4.734;2024-02-21T14:53:56;9.60;99.90
17489;DHT22;8861;52.644;4.734;2024-02-21T14:56:23;9.60;99.90
17489;DHT22;8861;52.644;4.734;2024-02-21T14:58:50;9.50;99.90
17489;DHT22;8861;52.644;4.734;2024-02-21T15:01:19;9.40;99.90
17489;DHT22;8861;52.644;4.734;2024-02-21T15:03:46;9.40;99.90
17489;DHT22;8861;52.644;4.734;2024-02-21T15:06:13;9.30;99.90
17489;DHT22;8861;52.644;4.734;2024-02-21T15:08:40;9.30;99.90
17489;DHT22;8861;52.644;4.734;2024-02-21T15:11:07;9.30;99.90
17489;DHT22;8861;52.644;4.734;2024-02-21T15:13:34;9.20;99.90
17489;DHT22;8861;52.644;4.734;2024-02-21T15:16:02;9.20;99.90
17489;DHT22;8861;52.644;4.734;2024-02-21T15:18:32;9.10;99.90
17489;DHT22;8861;52.644;4.734;2024-02-21T15:20:59;9.10;99.90
17489;DHT22;8861;52.644;4.734;2024-02-21T15:23:26;9.10;99.90
17489;DHT22;8861;52.644;4.734;2024-02-21T15:25:53;9.00;99.90
17489;DHT22;8861;52.644;4.734;2024-02-21T15:28:20;9.00;99.90
17489;DHT22;8861;52.644;4.734;2024-02-21T15:30:47;9.00;99.90
17489;DHT22;8861;52.644;4.734;2024-02-21T15:33:14;8.90;99.90
17489;DHT22;8861;52.644;4.734;2024-02-21T15:35:42;8.90;99.90
17489;DHT22;8861;52.644;4.734;2024-02-21T15:38:09;8.90;99.90
17489;DHT22;8861;52.644;4.734;2024-02-21T15:40:36;8.90;99.90
17489;DHT22;8861;52.644;4.734;2024-02-21T15:43:03;8.80;99.90
17489;DHT22;8861;52.644;4.734;2024-02-21T15:45:31;8.80;99.90
17489;DHT22;8861;52.644;4.734;2024-02-21T15:47:58;8.80;99.90
17489;DHT22;8861;52.644;4.734;2024-02-21T15:50:25;8.80;99.90
17489;DHT22;8861;52.644;4.734;2024-02-21T15:52:55;8.80;99.90
17489;DHT22;8861;52.644;4.734;2024-02-21T15:55:22;8.70;99.90
17489;DHT22;8861;52.644;4.734;2024-02-21T15:57:50;8.80;99.90